createdAt,value
2018-12-13T00:00:08.783Z,93.20
2018-12-13T00:01:08.762Z,93.14
2018-12-13T00:02:08.738Z,93.10
2018-12-13T00:03:08.735Z,93.20
2018-12-13T00:04:08.711Z,93.62
2018-12-13T00:05:08.738Z,93.24
2018-12-13T00:06:08.694Z,93.55
2018-12-13T00:07:08.686Z,93.03
2018-12-13T00:08:08.686Z,93.03
2018-12-13T00:09:08.665Z,93.03
2018-12-13T00:10:08.680Z,93.14
2018-12-13T00:11:08.647Z,93.14
2018-12-13T00:12:08.624Z,93.14
2018-12-13T00:13:08.619Z,93.35
2018-12-13T00:14:08.614Z,93.55
2018-12-13T00:16:17.828Z,93.07
2018-12-13T00:17:18.807Z,93.39
2018-12-13T00:18:18.785Z,93.07
2018-12-13T00:19:18.776Z,93.29
2018-12-13T00:20:18.765Z,92.76
2018-12-13T00:21:18.784Z,92.86
2018-12-13T00:22:18.756Z,93.07
2018-12-13T00:23:18.741Z,93.07
2018-12-13T00:24:18.733Z,93.07
2018-12-13T00:25:18.718Z,93.07
2018-12-13T00:26:18.736Z,92.55
2018-12-13T00:27:18.704Z,92.86
2018-12-13T00:28:18.684Z,92.97
2018-12-13T00:29:18.671Z,93.07
2018-12-13T00:30:18.659Z,93.07
2018-12-13T00:31:18.672Z,93.39
2018-12-13T00:32:18.636Z,93.60
2018-12-13T00:33:18.626Z,93.01
2018-12-13T00:34:18.619Z,93.49
2018-12-13T00:35:18.602Z,93.39
2018-12-13T00:36:18.617Z,93.29
2018-12-13T00:37:18.597Z,93.54
2018-12-13T00:38:18.571Z,93.70
2018-12-13T00:39:18.565Z,94.01
2018-12-13T00:40:18.555Z,93.80
2018-12-13T00:41:18.568Z,93.70
2018-12-13T00:42:18.535Z,94.12
2018-12-13T00:43:18.524Z,94.22
2018-12-13T00:44:18.507Z,93.64
2018-12-13T00:45:18.494Z,93.80
2018-12-13T00:46:18.522Z,93.39
2018-12-13T00:47:18.479Z,93.49
2018-12-13T00:48:18.475Z,93.49
2018-12-13T00:49:18.463Z,93.18
2018-12-13T00:50:18.444Z,92.97
2018-12-13T00:51:18.456Z,93.49
2018-12-13T00:52:18.429Z,92.97
2018-12-13T00:53:18.416Z,92.86
2018-12-13T00:54:18.414Z,93.39
2018-12-13T00:55:18.389Z,93.60
2018-12-13T00:56:18.421Z,92.97
2018-12-13T00:57:18.387Z,93.18
2018-12-13T00:58:18.363Z,93.64
2018-12-13T00:59:18.352Z,93.39
2018-12-13T01:00:18.380Z,92.76
2018-12-13T01:01:18.350Z,92.76
2018-12-13T01:02:18.320Z,92.76
2018-12-13T01:03:18.300Z,93.07
2018-12-13T01:04:18.300Z,93.18
2018-12-13T01:05:18.287Z,92.35
2018-12-13T01:06:18.315Z,92.35
2018-12-13T01:07:18.262Z,92.03
2018-12-13T01:08:18.247Z,92.55
2018-12-13T01:09:18.244Z,92.97
2018-12-13T01:10:18.232Z,93.18
2018-12-13T01:11:18.223Z,92.97
2018-12-13T01:12:18.230Z,92.70
2018-12-13T01:13:18.195Z,92.97
2018-12-13T01:14:18.191Z,92.91
2018-12-13T01:15:18.176Z,93.12
2018-12-13T01:16:18.162Z,92.80
2018-12-13T01:17:18.173Z,93.43
2018-12-13T01:18:18.143Z,93.33
2018-12-13T01:19:18.137Z,93.43
2018-12-13T01:20:18.114Z,93.54
2018-12-13T01:21:20.830Z,93.64
2018-12-13T01:22:18.126Z,93.43
2018-12-13T01:23:18.093Z,93.43
2018-12-13T01:24:18.070Z,93.43
2018-12-13T01:25:18.074Z,93.05
2018-12-13T01:26:18.053Z,93.16
2018-12-13T01:27:18.073Z,93.27
2018-12-13T01:28:18.042Z,93.58
2018-12-13T01:29:18.025Z,93.05
2018-12-13T01:30:18.004Z,93.79
2018-12-13T01:31:18.004Z,93.27
2018-12-13T01:32:17.994Z,92.64
2018-12-13T01:33:17.993Z,92.95
2018-12-13T01:34:17.965Z,92.85
2018-12-13T01:35:17.962Z,93.27
2018-12-13T01:36:17.958Z,93.27
2018-12-13T01:37:17.928Z,92.33
2018-12-13T01:38:17.948Z,92.43
2018-12-13T01:39:17.918Z,92.33
2018-12-13T01:40:17.897Z,91.71
2018-12-13T01:41:17.894Z,92.54
2018-12-13T01:42:17.878Z,92.64
2018-12-13T01:43:17.893Z,92.54
2018-12-13T01:44:17.856Z,92.16
2018-12-13T01:45:17.861Z,92.54
2018-12-13T01:46:17.841Z,91.96
2018-12-13T01:47:17.845Z,91.96
2018-12-13T01:48:17.841Z,92.12
2018-12-13T01:49:17.819Z,92.27
2018-12-13T01:50:17.787Z,92.27
2018-12-13T01:51:17.779Z,92.58
2018-12-13T01:52:17.778Z,92.37
2018-12-13T01:53:17.776Z,92.58
2018-12-13T01:54:17.754Z,92.47
2018-12-13T01:55:17.753Z,92.27
2018-12-13T01:56:17.736Z,92.16
2018-12-13T01:57:17.716Z,92.16
2018-12-13T01:58:17.737Z,91.96
2018-12-13T01:59:17.705Z,92.16
2018-12-13T02:00:17.683Z,92.37
2018-12-13T02:01:17.677Z,92.31
2018-12-13T02:02:17.670Z,92.27
2018-12-13T02:03:17.674Z,92.16
2018-12-13T02:04:17.642Z,92.10
2018-12-13T02:05:17.630Z,92.62
2018-12-13T02:06:17.633Z,92.00
2018-12-13T02:07:17.609Z,92.21
2018-12-13T02:08:17.622Z,91.89
2018-12-13T02:09:17.587Z,92.00
2018-12-13T02:10:17.576Z,92.52
2018-12-13T02:11:17.570Z,93.14
2018-12-13T02:12:17.561Z,93.35
2018-12-13T02:13:17.568Z,92.72
2018-12-13T02:14:17.551Z,93.04
2018-12-13T02:15:17.529Z,93.04
2018-12-13T02:17:26.710Z,93.29
2018-12-13T02:18:27.710Z,92.72
2018-12-13T02:19:27.683Z,93.24
2018-12-13T02:20:27.667Z,92.93
2018-12-13T02:21:27.666Z,93.24
2018-12-13T02:22:27.655Z,92.52
2018-12-13T02:23:27.651Z,92.10
2018-12-13T02:24:27.632Z,92.52
2018-12-13T02:25:27.606Z,92.00
2018-12-13T02:26:27.611Z,92.72
2018-12-13T02:27:27.595Z,92.83
2018-12-13T02:28:27.605Z,92.83
2018-12-13T02:29:27.578Z,92.52
2018-12-13T02:30:27.561Z,92.52
2018-12-13T02:31:27.552Z,91.78
2018-12-13T02:32:27.547Z,92.00
2018-12-13T02:33:27.559Z,92.52
2018-12-13T02:34:27.519Z,92.52
2018-12-13T02:35:27.503Z,92.21
2018-12-13T02:36:27.502Z,92.00
2018-12-13T02:37:27.496Z,92.21
2018-12-13T02:38:27.507Z,92.31
2018-12-13T02:39:27.477Z,92.21
2018-12-13T02:40:27.446Z,92.31
2018-12-13T02:41:27.442Z,92.14
2018-12-13T02:42:27.441Z,92.10
2018-12-13T02:43:27.432Z,92.21
2018-12-13T02:44:27.411Z,92.46
2018-12-13T02:45:27.390Z,92.66
2018-12-13T02:46:27.382Z,92.66
2018-12-13T02:47:27.407Z,92.66
2018-12-13T02:48:27.387Z,92.66
2018-12-13T02:49:27.351Z,92.77
2018-12-13T02:50:27.351Z,92.21
2018-12-13T02:51:27.338Z,91.78
2018-12-13T02:52:27.327Z,91.37
2018-12-13T02:53:27.342Z,91.58
2018-12-13T02:54:27.321Z,91.20
2018-12-13T02:55:27.290Z,91.62
2018-12-13T02:56:27.293Z,91.62
2018-12-13T02:57:27.280Z,91.62
2018-12-13T02:58:27.282Z,91.52
2018-12-13T02:59:27.258Z,91.93
2018-12-13T03:00:27.236Z,92.56
2018-12-13T03:01:27.226Z,92.56
2018-12-13T03:02:27.219Z,92.35
2018-12-13T03:03:27.233Z,92.60
2018-12-13T03:04:27.218Z,92.35
2018-12-13T03:05:27.229Z,92.29
2018-12-13T03:06:27.166Z,92.60
2018-12-13T03:07:27.155Z,92.18
2018-12-13T03:08:27.165Z,92.50
2018-12-13T03:09:27.158Z,92.40
2018-12-13T03:10:27.117Z,93.27
2018-12-13T03:11:27.117Z,93.12
2018-12-13T03:12:27.102Z,93.06
2018-12-13T03:13:27.121Z,92.85
2018-12-13T03:14:27.073Z,93.02
2018-12-13T03:15:27.069Z,93.27
2018-12-13T03:16:27.072Z,93.59
2018-12-13T03:17:27.041Z,94.00
2018-12-13T03:18:27.059Z,93.59
2018-12-13T03:19:27.039Z,93.59
2018-12-13T03:20:27.009Z,93.79
2018-12-13T03:21:27.003Z,93.02
2018-12-13T03:22:26.989Z,93.06
2018-12-13T03:23:26.975Z,92.96
2018-12-13T03:24:26.997Z,93.06
2018-12-13T03:25:26.956Z,93.06
2018-12-13T03:26:26.942Z,93.37
2018-12-13T03:27:26.929Z,93.06
2018-12-13T03:28:26.931Z,93.27
2018-12-13T03:29:26.944Z,93.27
2018-12-13T03:30:26.921Z,93.27
2018-12-13T03:31:26.885Z,93.06
2018-12-13T03:32:26.928Z,93.37
2018-12-13T03:33:26.885Z,93.16
2018-12-13T03:34:26.887Z,93.16
2018-12-13T03:35:26.854Z,93.48
2018-12-13T03:36:26.850Z,92.96
2018-12-13T03:37:26.831Z,93.16
2018-12-13T03:38:26.819Z,93.27
2018-12-13T03:39:26.825Z,93.27
2018-12-13T03:40:26.798Z,92.54
2018-12-13T03:41:26.785Z,92.54
2018-12-13T03:42:26.761Z,92.65
2018-12-13T03:43:26.759Z,92.65
2018-12-13T03:44:26.769Z,93.16
2018-12-13T03:45:26.731Z,93.06
2018-12-13T03:46:26.728Z,92.22
2018-12-13T03:47:26.705Z,92.44
2018-12-13T03:48:26.706Z,92.96
2018-12-13T03:49:26.712Z,92.85
2018-12-13T03:50:26.690Z,92.75
2018-12-13T03:51:26.669Z,92.54
2018-12-13T03:52:26.652Z,92.75
2018-12-13T03:53:26.651Z,92.65
2018-12-13T03:54:26.651Z,92.85
2018-12-13T03:55:26.626Z,92.85
2018-12-13T03:56:26.607Z,92.54
2018-12-13T03:57:26.592Z,92.75
2018-12-13T03:58:26.590Z,92.85
2018-12-13T03:59:26.607Z,92.65
2018-12-13T04:00:26.568Z,92.65
2018-12-13T04:01:26.556Z,92.33
2018-12-13T04:02:26.545Z,92.33
2018-12-13T04:03:26.539Z,92.90
2018-12-13T04:04:26.543Z,92.96
2018-12-13T04:05:26.520Z,92.85
2018-12-13T04:06:26.505Z,92.44
2018-12-13T04:07:27.821Z,92.37
2018-12-13T04:08:26.468Z,92.54
2018-12-13T04:09:26.482Z,92.33
2018-12-13T04:10:26.444Z,92.54
2018-12-13T04:11:26.445Z,92.54
2018-12-13T04:12:26.431Z,92.65
2018-12-13T04:13:26.416Z,92.58
2018-12-13T04:14:26.450Z,92.47
2018-12-13T04:15:26.399Z,92.69
2018-12-13T04:16:26.500Z,92.69
2018-12-13T04:18:35.562Z,92.58
2018-12-13T04:19:36.577Z,92.47
2018-12-13T04:20:36.527Z,92.47
2018-12-13T04:21:36.525Z,92.69
2018-12-13T04:22:36.511Z,92.37
2018-12-13T04:23:36.508Z,92.44
2018-12-13T04:24:36.514Z,91.85
2018-12-13T04:25:36.482Z,91.85
2018-12-13T04:26:36.477Z,92.90
2018-12-13T04:27:36.470Z,92.69
2018-12-13T04:28:36.460Z,92.16
2018-12-13T04:29:36.456Z,92.79
2018-12-13T04:30:36.437Z,92.52
2018-12-13T04:31:36.418Z,92.63
2018-12-13T04:32:36.403Z,92.31
2018-12-13T04:33:36.391Z,92.21
2018-12-13T04:34:36.439Z,92.37
2018-12-13T04:35:36.369Z,92.69
2018-12-13T04:36:36.379Z,91.89
2018-12-13T04:37:36.346Z,92.79
2018-12-13T04:38:36.336Z,92.41
2018-12-13T04:39:36.350Z,92.63
2018-12-13T04:40:36.313Z,92.58
2018-12-13T04:41:36.298Z,92.41
2018-12-13T04:42:36.284Z,92.41
2018-12-13T04:43:36.283Z,92.83
2018-12-13T04:44:37.838Z,92.83
2018-12-13T04:45:36.255Z,92.52
2018-12-13T04:46:36.239Z,92.83
2018-12-13T04:47:36.242Z,92.73
2018-12-13T04:48:36.217Z,92.31
2018-12-13T04:49:36.232Z,92.63
2018-12-13T04:50:36.274Z,92.63
2018-12-13T04:51:36.213Z,92.63
2018-12-13T04:52:36.174Z,93.15
2018-12-13T04:53:36.234Z,92.63
2018-12-13T04:54:36.169Z,92.21
2018-12-13T04:55:36.145Z,92.73
2018-12-13T04:56:36.133Z,92.10
2018-12-13T04:57:36.119Z,92.52
2018-12-13T04:58:36.119Z,92.83
2018-12-13T04:59:36.120Z,92.52
2018-12-13T05:00:36.093Z,93.25
2018-12-13T05:01:36.067Z,92.41
2018-12-13T05:02:36.055Z,92.31
2018-12-13T05:03:36.047Z,93.15
2018-12-13T05:04:36.069Z,93.25
2018-12-13T05:05:36.028Z,92.73
2018-12-13T05:06:36.011Z,92.63
2018-12-13T05:07:41.499Z,92.66
2018-12-13T05:08:35.991Z,92.46
2018-12-13T05:09:35.985Z,93.29
2018-12-13T05:10:35.988Z,93.04
2018-12-13T05:11:35.978Z,93.50
2018-12-13T05:12:35.945Z,93.29
2018-12-13T05:13:35.931Z,93.25
2018-12-13T05:14:35.923Z,94.02
2018-12-13T05:15:35.949Z,93.92
2018-12-13T05:16:35.932Z,93.71
2018-12-13T05:17:35.900Z,94.13
2018-12-13T05:18:35.884Z,93.40
2018-12-13T05:19:35.878Z,93.46
2018-12-13T05:20:35.893Z,93.67
2018-12-13T05:21:35.859Z,93.50
2018-12-13T05:22:35.853Z,93.29
2018-12-13T05:23:35.836Z,92.98
2018-12-13T05:24:35.820Z,92.98
2018-12-13T05:25:35.841Z,93.19
2018-12-13T05:26:35.807Z,93.50
2018-12-13T05:27:35.784Z,93.35
2018-12-13T05:28:35.782Z,92.73
2018-12-13T05:29:35.760Z,92.56
2018-12-13T05:30:35.781Z,92.66
2018-12-13T05:31:35.741Z,92.66
2018-12-13T05:32:35.725Z,92.56
2018-12-13T05:33:35.714Z,93.29
2018-12-13T05:34:35.697Z,92.35
2018-12-13T05:35:35.705Z,93.40
2018-12-13T05:36:35.722Z,93.08
2018-12-13T05:37:35.676Z,92.77
2018-12-13T05:38:35.661Z,93.61
2018-12-13T05:39:35.651Z,93.57
2018-12-13T05:40:35.639Z,93.50
2018-12-13T05:41:35.645Z,92.66
2018-12-13T05:42:35.613Z,92.77
2018-12-13T05:43:35.608Z,93.08
2018-12-13T05:44:35.595Z,93.50
2018-12-13T05:45:35.583Z,93.50
2018-12-13T05:46:35.597Z,93.46
2018-12-13T05:47:35.556Z,92.77
2018-12-13T05:48:35.549Z,93.61
2018-12-13T05:49:35.544Z,92.56
2018-12-13T05:50:35.519Z,93.50
2018-12-13T05:51:35.543Z,93.61
2018-12-13T05:52:35.511Z,93.57
2018-12-13T05:53:35.492Z,92.41
2018-12-13T05:54:35.481Z,92.56
2018-12-13T05:55:35.477Z,92.46
2018-12-13T05:56:35.492Z,92.56
2018-12-13T05:57:35.449Z,93.08
2018-12-13T05:58:35.442Z,92.04
2018-12-13T05:59:35.432Z,92.77
2018-12-13T06:00:35.411Z,92.98
2018-12-13T06:01:35.434Z,92.56
2018-12-13T06:02:35.394Z,92.56
2018-12-13T06:03:35.384Z,92.73
2018-12-13T06:04:35.366Z,92.77
2018-12-13T06:05:35.373Z,92.98
2018-12-13T06:06:35.366Z,92.88
2018-12-13T06:07:35.344Z,92.77
2018-12-13T06:08:35.327Z,93.29
2018-12-13T06:09:35.311Z,92.66
2018-12-13T06:10:35.300Z,92.56
2018-12-13T06:11:35.316Z,92.25
2018-12-13T06:12:35.273Z,92.46
2018-12-13T06:13:35.271Z,92.88
2018-12-13T06:14:35.262Z,93.19
2018-12-13T06:15:35.255Z,92.98
2018-12-13T06:16:35.246Z,93.08
2018-12-13T06:17:35.219Z,92.35
2018-12-13T06:19:44.420Z,92.56
2018-12-13T06:20:45.397Z,92.77
2018-12-13T06:21:45.482Z,92.98
2018-12-13T06:22:45.374Z,93.71
2018-12-13T06:23:45.369Z,93.08
2018-12-13T06:24:45.356Z,93.29
2018-12-13T06:25:45.351Z,93.29
2018-12-13T06:26:45.347Z,92.98
2018-12-13T06:27:45.324Z,93.61
2018-12-13T06:28:45.313Z,93.61
2018-12-13T06:29:48.820Z,92.94
2018-12-13T06:30:45.281Z,93.19
2018-12-13T06:31:45.303Z,93.08
2018-12-13T06:32:45.277Z,93.29
2018-12-13T06:33:45.269Z,93.08
2018-12-13T06:34:45.251Z,93.29
2018-12-13T06:35:45.238Z,93.61
2018-12-13T06:36:45.245Z,93.08
2018-12-13T06:37:45.225Z,92.83
2018-12-13T06:38:45.202Z,92.63
2018-12-13T06:39:45.187Z,92.10
2018-12-13T06:40:45.177Z,92.73
2018-12-13T06:41:45.194Z,93.04
2018-12-13T06:42:45.154Z,92.63
2018-12-13T06:43:45.160Z,92.31
2018-12-13T06:44:45.136Z,93.04
2018-12-13T06:45:45.165Z,92.52
2018-12-13T06:46:45.144Z,92.94
2018-12-13T06:47:45.114Z,92.52
2018-12-13T06:48:45.171Z,92.73
2018-12-13T06:49:45.768Z,92.66
2018-12-13T06:50:45.069Z,93.46
2018-12-13T06:51:45.091Z,92.94
2018-12-13T06:52:45.142Z,92.73
2018-12-13T06:53:45.063Z,93.25
2018-12-13T06:54:45.019Z,92.52
2018-12-13T06:55:45.080Z,93.04
2018-12-13T06:56:45.005Z,92.73
2018-12-13T06:57:44.991Z,92.58
2018-12-13T06:58:44.980Z,92.47
2018-12-13T06:59:44.965Z,92.37
2018-12-13T07:00:44.965Z,92.37
2018-12-13T07:01:44.992Z,92.27
2018-12-13T07:02:45.229Z,92.44
2018-12-13T07:03:44.934Z,92.37
2018-12-13T07:04:44.917Z,91.85
2018-12-13T07:05:44.896Z,91.60
2018-12-13T07:06:44.904Z,91.60
2018-12-13T07:07:44.878Z,91.81
2018-12-13T07:08:45.122Z,91.81
2018-12-13T07:09:44.890Z,91.60
2018-12-13T07:10:44.855Z,91.81
2018-12-13T07:11:44.838Z,91.39
2018-12-13T07:12:44.825Z,91.81
2018-12-13T07:13:44.840Z,91.60
2018-12-13T07:14:44.801Z,91.71
2018-12-13T07:15:44.787Z,90.93
2018-12-13T07:16:44.808Z,91.14
2018-12-13T07:17:44.770Z,91.14
2018-12-13T07:18:44.787Z,91.04
2018-12-13T07:19:44.757Z,91.25
2018-12-13T07:20:44.741Z,90.97
2018-12-13T07:21:44.735Z,91.18
2018-12-13T07:22:44.722Z,91.14
2018-12-13T07:23:44.730Z,91.04
2018-12-13T07:24:44.713Z,90.41
2018-12-13T07:25:44.690Z,90.93
2018-12-13T07:26:44.687Z,90.83
2018-12-13T07:27:44.672Z,90.41
2018-12-13T07:28:44.685Z,90.52
2018-12-13T07:29:44.723Z,90.41
2018-12-13T07:30:44.633Z,90.83
2018-12-13T07:31:44.616Z,90.41
2018-12-13T07:32:44.610Z,90.31
2018-12-13T07:33:44.623Z,89.89
2018-12-13T07:34:44.592Z,90.37
2018-12-13T07:35:44.575Z,90.26
2018-12-13T07:36:44.567Z,90.41
2018-12-13T07:37:44.560Z,90.52
2018-12-13T07:38:44.597Z,90.52
2018-12-13T07:39:44.538Z,90.20
2018-12-13T07:40:44.524Z,90.37
2018-12-13T07:41:44.525Z,89.85
2018-12-13T07:42:44.503Z,89.54
2018-12-13T07:43:44.555Z,90.16
2018-12-13T07:44:44.489Z,89.95
2018-12-13T07:45:44.483Z,89.64
2018-12-13T07:46:44.463Z,90.06
2018-12-13T07:47:44.445Z,89.75
2018-12-13T07:48:44.456Z,89.85
2018-12-13T07:49:44.431Z,89.54
2018-12-13T07:50:44.584Z,89.75
2018-12-13T07:51:44.421Z,89.75
2018-12-13T07:52:44.390Z,90.26
2018-12-13T07:53:44.421Z,89.95
2018-12-13T07:54:44.380Z,89.75
2018-12-13T07:55:44.371Z,89.54
2018-12-13T07:56:44.361Z,89.95
2018-12-13T07:57:44.360Z,89.75
2018-12-13T07:58:45.206Z,89.43
2018-12-13T07:59:44.649Z,89.18
2018-12-13T08:00:44.370Z,89.22
2018-12-13T08:01:44.315Z,89.60
2018-12-13T08:02:44.294Z,89.39
2018-12-13T08:03:44.276Z,89.70
2018-12-13T08:04:44.300Z,89.50
2018-12-13T08:05:44.278Z,89.64
2018-12-13T08:06:44.238Z,89.39
2018-12-13T08:07:44.240Z,89.50
2018-12-13T08:08:44.227Z,90.01
2018-12-13T08:09:44.246Z,89.91
2018-12-13T08:10:44.261Z,89.70
2018-12-13T08:11:44.210Z,89.29
2018-12-13T08:12:44.316Z,89.50
2018-12-13T08:13:45.370Z,89.81
2018-12-13T08:14:44.174Z,89.70
2018-12-13T08:15:44.152Z,90.54
2018-12-13T08:16:44.196Z,90.01
2018-12-13T08:17:44.128Z,90.44
2018-12-13T08:18:44.128Z,89.91
2018-12-13T08:20:53.426Z,90.64
2018-12-13T08:21:54.310Z,89.81
2018-12-13T08:22:54.295Z,90.64
2018-12-13T08:23:54.295Z,89.70
2018-12-13T08:24:54.286Z,89.91
2018-12-13T08:25:54.284Z,89.60
2018-12-13T08:26:54.261Z,90.33
2018-12-13T08:27:54.237Z,89.91
2018-12-13T08:28:54.231Z,90.39
2018-12-13T08:29:54.231Z,90.12
2018-12-13T08:30:54.242Z,89.70
2018-12-13T08:31:54.211Z,89.50
2018-12-13T08:32:54.208Z,89.70
2018-12-13T08:33:54.181Z,89.66
2018-12-13T08:34:54.176Z,89.35
2018-12-13T08:35:54.201Z,89.60
2018-12-13T08:36:54.161Z,89.45
2018-12-13T08:37:54.144Z,90.39
2018-12-13T08:38:54.120Z,90.60
2018-12-13T08:39:54.125Z,89.56
2018-12-13T08:40:54.141Z,89.56
2018-12-13T08:41:54.103Z,89.56
2018-12-13T08:42:54.080Z,89.14
2018-12-13T08:43:54.084Z,89.25
2018-12-13T08:44:54.061Z,89.25
2018-12-13T08:45:54.078Z,89.18
2018-12-13T08:46:54.043Z,89.31
2018-12-13T08:47:54.070Z,88.89
2018-12-13T08:48:54.031Z,89.14
2018-12-13T08:49:54.005Z,89.35
2018-12-13T08:50:54.347Z,89.52
2018-12-13T08:51:54.000Z,89.45
2018-12-13T08:52:53.999Z,89.10
2018-12-13T08:53:53.977Z,88.42
2018-12-13T08:54:53.955Z,88.79
2018-12-13T08:55:54.613Z,89.31
2018-12-13T08:56:53.943Z,88.48
2018-12-13T08:57:53.946Z,88.58
2018-12-13T08:58:53.931Z,88.48
2018-12-13T08:59:53.979Z,88.37
2018-12-13T09:00:53.895Z,88.48
2018-12-13T09:01:53.900Z,88.58
2018-12-13T09:02:53.889Z,88.68
2018-12-13T09:03:53.957Z,88.48
2018-12-13T09:04:53.956Z,88.48
2018-12-13T09:05:53.850Z,88.58
2018-12-13T09:06:53.860Z,88.68
2018-12-13T09:07:53.851Z,88.06
2018-12-13T09:08:53.831Z,88.06
2018-12-13T09:09:53.793Z,88.58
2018-12-13T09:10:53.787Z,89.27
2018-12-13T09:11:53.809Z,88.43
2018-12-13T09:12:54.748Z,88.54
2018-12-13T09:13:53.756Z,88.68
2018-12-13T09:14:53.770Z,88.06
2018-12-13T09:15:53.730Z,88.43
2018-12-13T09:16:53.740Z,88.64
2018-12-13T09:17:53.710Z,88.12
2018-12-13T09:18:53.697Z,88.33
2018-12-13T09:19:54.554Z,88.02
2018-12-13T09:20:53.849Z,88.23
2018-12-13T09:21:53.858Z,88.23
2018-12-13T09:22:53.662Z,88.02
2018-12-13T09:23:53.658Z,88.23
2018-12-13T09:24:53.631Z,88.64
2018-12-13T09:25:53.619Z,88.33
2018-12-13T09:26:53.643Z,88.12
2018-12-13T09:27:54.111Z,87.81
2018-12-13T09:28:53.660Z,87.92
2018-12-13T09:29:54.692Z,88.33
2018-12-13T09:30:53.615Z,87.35
2018-12-13T09:31:53.595Z,87.98
2018-12-13T09:32:53.553Z,87.66
2018-12-13T09:33:53.565Z,88.02
2018-12-13T09:34:53.629Z,87.66
2018-12-13T09:35:53.578Z,87.88
2018-12-13T09:36:53.713Z,87.81
2018-12-13T09:37:56.107Z,87.29
2018-12-13T09:38:53.480Z,87.46
2018-12-13T09:39:53.483Z,87.25
2018-12-13T09:40:53.557Z,87.25
2018-12-13T09:41:53.590Z,86.94
2018-12-13T09:42:53.439Z,86.80
2018-12-13T09:43:53.442Z,87.21
2018-12-13T09:44:53.457Z,87.11
2018-12-13T09:45:53.513Z,86.90
2018-12-13T09:46:53.427Z,87.01
2018-12-13T09:47:53.391Z,86.69
2018-12-13T09:48:53.431Z,86.55
2018-12-13T09:49:53.488Z,86.38
2018-12-13T09:50:53.354Z,86.27
2018-12-13T09:51:53.374Z,86.49
2018-12-13T09:52:53.341Z,86.59
2018-12-13T09:53:53.343Z,86.44
2018-12-13T09:54:53.313Z,86.86
2018-12-13T09:55:53.299Z,86.03
2018-12-13T09:56:53.325Z,87.27
2018-12-13T09:57:53.287Z,86.76
2018-12-13T09:58:53.267Z,86.55
2018-12-13T09:59:53.257Z,86.13
2018-12-13T10:00:53.272Z,86.55
2018-12-13T10:01:53.267Z,85.72
2018-12-13T10:02:53.236Z,86.34
2018-12-13T10:03:53.232Z,85.61
2018-12-13T10:04:53.216Z,86.55
2018-12-13T10:05:53.201Z,86.24
2018-12-13T10:06:53.216Z,85.93
2018-12-13T10:07:53.196Z,86.19
2018-12-13T10:08:53.164Z,86.72
2018-12-13T10:09:53.151Z,86.72
2018-12-13T10:10:53.139Z,85.78
2018-12-13T10:11:53.161Z,85.26
2018-12-13T10:12:53.672Z,85.05
2018-12-13T10:13:53.136Z,85.72
2018-12-13T10:14:53.105Z,86.51
2018-12-13T10:15:53.088Z,86.24
2018-12-13T10:16:53.173Z,86.24
2018-12-13T10:17:53.081Z,85.72
2018-12-13T10:18:53.078Z,86.49
2018-12-13T10:19:53.040Z,86.65
2018-12-13T10:22:03.394Z,86.44
2018-12-13T10:23:04.355Z,86.34
2018-12-13T10:24:04.344Z,86.76
2018-12-13T10:25:04.292Z,86.55
2018-12-13T10:26:04.290Z,86.76
2018-12-13T10:27:04.319Z,86.24
2018-12-13T10:28:04.278Z,86.55
2018-12-13T10:29:04.398Z,86.30
2018-12-13T10:30:04.480Z,84.89
2018-12-13T10:31:04.322Z,84.78
2018-12-13T10:32:05.061Z,84.78
2018-12-13T10:33:04.344Z,85.51
2018-12-13T10:34:04.212Z,86.19
2018-12-13T10:35:04.228Z,85.30
2018-12-13T10:36:04.187Z,85.61
2018-12-13T10:37:04.173Z,86.51
2018-12-13T10:38:04.190Z,85.41
2018-12-13T10:39:04.145Z,85.68
2018-12-13T10:40:04.142Z,86.03
2018-12-13T10:41:04.126Z,86.03
2018-12-13T10:42:04.108Z,84.84
2018-12-13T10:43:04.104Z,85.30
2018-12-13T10:44:04.183Z,86.13
2018-12-13T10:45:04.076Z,85.47
2018-12-13T10:46:04.064Z,84.74
2018-12-13T10:47:04.071Z,85.30
2018-12-13T10:48:04.047Z,85.26
2018-12-13T10:49:04.073Z,85.68
2018-12-13T10:50:04.504Z,84.74
2018-12-13T10:51:04.022Z,85.26
2018-12-13T10:52:04.003Z,85.36
2018-12-13T10:53:03.991Z,85.16
2018-12-13T10:54:03.999Z,84.84
2018-12-13T10:55:03.990Z,84.95
2018-12-13T10:56:05.078Z,84.64
2018-12-13T10:57:03.950Z,85.05
2018-12-13T10:58:03.935Z,84.74
2018-12-13T10:59:03.927Z,84.64
2018-12-13T11:00:04.060Z,84.64
2018-12-13T11:01:03.908Z,84.89
2018-12-13T11:02:03.893Z,84.89
2018-12-13T11:03:03.893Z,84.74
2018-12-13T11:04:03.878Z,84.99
2018-12-13T11:05:03.885Z,85.26
2018-12-13T11:06:03.854Z,84.89
2018-12-13T11:07:03.847Z,84.58
2018-12-13T11:08:03.856Z,85.47
2018-12-13T11:09:03.831Z,85.26
2018-12-13T11:10:03.846Z,84.84
2018-12-13T11:11:03.819Z,85.57
2018-12-13T11:12:03.785Z,85.57
2018-12-13T11:13:03.807Z,84.95
2018-12-13T11:14:03.773Z,84.43
2018-12-13T11:15:03.779Z,84.84
2018-12-13T11:16:03.754Z,84.43
2018-12-13T11:17:03.824Z,84.33
2018-12-13T11:18:03.718Z,84.43
2018-12-13T11:19:03.731Z,84.43
2018-12-13T11:20:03.737Z,85.16
2018-12-13T11:21:03.818Z,85.16
2018-12-13T11:22:03.692Z,84.81
2018-12-13T11:23:03.680Z,84.60
2018-12-13T11:24:03.669Z,84.19
2018-12-13T11:25:03.674Z,84.43
2018-12-13T11:26:03.651Z,84.22
2018-12-13T11:27:03.632Z,84.64
2018-12-13T11:28:03.625Z,84.22
2018-12-13T11:29:03.616Z,84.64
2018-12-13T11:30:03.648Z,84.91
2018-12-13T11:31:03.595Z,84.84
2018-12-13T11:32:03.568Z,84.53
2018-12-13T11:33:03.574Z,84.64
2018-12-13T11:34:03.563Z,84.74
2018-12-13T11:35:03.567Z,84.74
2018-12-13T11:36:03.548Z,85.02
2018-12-13T11:37:03.529Z,84.60
2018-12-13T11:38:03.531Z,84.19
2018-12-13T11:39:05.878Z,83.87
2018-12-13T11:40:03.512Z,84.19
2018-12-13T11:41:03.492Z,84.39
2018-12-13T11:42:03.475Z,84.50
2018-12-13T11:43:03.525Z,84.25
2018-12-13T11:44:03.445Z,84.29
2018-12-13T11:45:03.472Z,84.08
2018-12-13T11:46:03.511Z,84.19
2018-12-13T11:47:03.461Z,83.87
2018-12-13T11:48:03.414Z,83.46
2018-12-13T11:49:03.427Z,83.98
2018-12-13T11:50:03.403Z,84.29
2018-12-13T11:51:03.385Z,84.81
2018-12-13T11:52:03.392Z,84.81
2018-12-13T11:53:03.350Z,84.39
2018-12-13T11:54:03.333Z,84.19
2018-12-13T11:55:03.355Z,84.25
2018-12-13T11:56:03.420Z,84.50
2018-12-13T11:57:03.323Z,84.29
2018-12-13T11:58:03.305Z,83.46
2018-12-13T11:59:03.328Z,84.29
2018-12-13T12:00:03.354Z,84.19
2018-12-13T12:01:03.279Z,84.29
2018-12-13T12:02:03.265Z,84.29
2018-12-13T12:03:03.296Z,84.08
2018-12-13T12:04:03.388Z,84.08
2018-12-13T12:05:03.227Z,84.39
2018-12-13T12:06:03.237Z,84.39
2018-12-13T12:07:03.203Z,84.29
2018-12-13T12:08:03.200Z,84.29
2018-12-13T12:09:03.232Z,84.08
2018-12-13T12:10:03.980Z,84.39
2018-12-13T12:11:03.188Z,84.77
2018-12-13T12:12:03.489Z,83.87
2018-12-13T12:13:03.137Z,84.29
2018-12-13T12:14:03.121Z,84.15
2018-12-13T12:15:03.367Z,84.15
2018-12-13T12:16:03.116Z,84.19
2018-12-13T12:17:03.107Z,84.36
2018-12-13T12:18:03.112Z,84.25
2018-12-13T12:19:03.087Z,84.77
2018-12-13T12:20:03.313Z,84.15
2018-12-13T12:21:03.073Z,84.05
2018-12-13T12:23:23.195Z,83.94
2018-12-13T12:24:24.155Z,83.32
2018-12-13T12:25:24.151Z,82.90
2018-12-13T12:26:25.001Z,83.22
2018-12-13T12:27:24.121Z,82.80
2018-12-13T12:28:24.123Z,82.80
2018-12-13T12:29:24.100Z,83.63
2018-12-13T12:30:24.103Z,84.25
2018-12-13T12:31:24.110Z,84.29
2018-12-13T12:32:24.082Z,83.53
2018-12-13T12:33:24.067Z,84.46
2018-12-13T12:34:25.005Z,84.15
2018-12-13T12:35:24.057Z,84.25
2018-12-13T12:36:24.038Z,84.05
2018-12-13T12:37:24.017Z,83.22
2018-12-13T12:38:24.007Z,83.01
2018-12-13T12:39:24.013Z,83.15
2018-12-13T12:40:23.982Z,82.84
2018-12-13T12:41:23.995Z,83.36
2018-12-13T12:42:24.118Z,84.08
2018-12-13T12:43:23.964Z,83.25
2018-12-13T12:44:23.971Z,82.63
2018-12-13T12:45:23.934Z,83.56
2018-12-13T12:46:23.920Z,83.04
2018-12-13T12:47:23.935Z,84.29
2018-12-13T12:48:23.911Z,83.04
2018-12-13T12:49:25.271Z,82.84
2018-12-13T12:50:23.874Z,83.11
2018-12-13T12:51:23.866Z,82.63
2018-12-13T12:52:23.888Z,82.39
2018-12-13T12:53:23.857Z,81.97
2018-12-13T12:54:23.844Z,82.28
2018-12-13T12:55:23.824Z,83.11
2018-12-13T12:56:23.807Z,82.39
2018-12-13T12:57:23.827Z,83.11
2018-12-13T12:58:23.804Z,82.59
2018-12-13T12:59:23.790Z,82.42
2018-12-13T13:00:23.781Z,82.11